sensor_id;sensor_type;location;lat;lon;timestamp;P1;durP1;ratioP1;P2;durP2;ratioP2
75935;SDS011;64614;32.062;34.834;2023-06-14T00:00:31;9.52;;;4.50;;
75935;SDS011;64614;32.062;34.834;2023-06-14T00:02:56;8.93;;;4.00;;
75935;SDS011;64614;32.062;34.834;2023-06-14T00:05:23;9.13;;;3.63;;
75935;SDS011;64614;32.062;34.834;2023-06-14T00:07:49;6.43;;;3.28;;
75935;SDS011;64614;32.062;34.834;2023-06-14T00:10:18;9.13;;;4.10;;
75935;SDS011;64614;32.062;34.834;2023-06-14T00:12:44;8.50;;;3.65;;
75935;SDS011;64614;32.062;34.834;2023-06-14T00:15:09;8.43;;;3.63;;
75935;SDS011;64614;32.062;34.834;2023-06-14T00:17:35;8.73;;;3.80;;
75935;SDS011;64614;32.062;34.834;2023-06-14T00:20:02;7.70;;;3.83;;
75935;SDS011;64614;32.062;34.834;2023-06-14T00:22:31;7.57;;;3.67;;
75935;SDS011;64614;32.062;34.834;2023-06-14T00:24:58;7.93;;;4.18;;
75935;SDS011;64614;32.062;34.834;2023-06-14T00:27:23;6.22;;;3.20;;
75935;SDS011;64614;32.062;34.834;2023-06-14T00:29:49;8.40;;;3.55;;
75935;SDS011;64614;32.062;34.834;2023-06-14T00:32:15;8.52;;;3.78;;
75935;SDS011;64614;32.062;34.834;2023-06-14T00:34:41;10.00;;;3.85;;
75935;SDS011;64614;32.062;34.834;2023-06-14T00:37:06;7.40;;;3.60;;
75935;SDS011;64614;32.062;34.834;2023-06-14T00:39:32;6.10;;;3.10;;
75935;SDS011;64614;32.062;34.834;2023-06-14T00:41:58;6.25;;;3.35;;
75935;SDS011;64614;32.062;34.834;2023-06-14T00:44:24;7.18;;;3.03;;
75935;SDS011;64614;32.062;34.834;2023-06-14T00:46:50;8.52;;;3.83;;
75935;SDS011;64614;32.062;34.834;2023-06-14T00:49:16;6.72;;;3.30;;
75935;SDS011;64614;32.062;34.834;2023-06-14T00:51:43;5.72;;;3.13;;
75935;SDS011;64614;32.062;34.834;2023-06-14T00:54:09;8.10;;;3.70;;
75935;SDS011;64614;32.062;34.834;2023-06-14T00:56:38;6.43;;;3.50;;
75935;SDS011;64614;32.062;34.834;2023-06-14T00:59:04;7.68;;;3.60;;
75935;SDS011;64614;32.062;34.834;2023-06-14T01:01:31;6.80;;;3.50;;
75935;SDS011;64614;32.062;34.834;2023-06-14T01:03:58;6.45;;;3.50;;
75935;SDS011;64614;32.062;34.834;2023-06-14T01:11:50;7.18;;;3.10;;
75935;SDS011;64614;32.062;34.834;2023-06-14T01:14:24;6.43;;;3.58;;
75935;SDS011;64614;32.062;34.834;2023-06-14T01:16:52;5.82;;;3.58;;
75935;SDS011;64614;32.062;34.834;2023-06-14T01:19:18;7.20;;;3.63;;
75935;SDS011;64614;32.062;34.834;2023-06-14T01:21:47;6.95;;;3.47;;
75935;SDS011;64614;32.062;34.834;2023-06-14T01:24:16;6.50;;;3.40;;
75935;SDS011;64614;32.062;34.834;2023-06-14T01:26:44;6.70;;;3.10;;
75935;SDS011;64614;32.062;34.834;2023-06-14T01:29:16;6.70;;;3.35;;
75935;SDS011;64614;32.062;34.834;2023-06-14T01:31:42;6.88;;;3.78;;
75935;SDS011;64614;32.062;34.834;2023-06-14T01:34:09;7.20;;;3.58;;
75935;SDS011;64614;32.062;34.834;2023-06-14T01:36:36;7.00;;;3.85;;
75935;SDS011;64614;32.062;34.834;2023-06-14T01:39:05;7.47;;;3.65;;
75935;SDS011;64614;32.062;34.834;2023-06-14T01:41:32;5.85;;;3.45;;
75935;SDS011;64614;32.062;34.834;2023-06-14T01:44:00;6.80;;;3.30;;
75935;SDS011;64614;32.062;34.834;2023-06-14T01:46:27;5.70;;;3.10;;
75935;SDS011;64614;32.062;34.834;2023-06-14T01:48:53;7.68;;;3.50;;
75935;SDS011;64614;32.062;34.834;2023-06-14T01:51:18;8.32;;;3.50;;
75935;SDS011;64614;32.062;34.834;2023-06-14T01:53:44;7.63;;;3.40;;
75935;SDS011;64614;32.062;34.834;2023-06-14T01:56:10;8.77;;;3.97;;
75935;SDS011;64614;32.062;34.834;2023-06-14T01:58:36;7.20;;;3.75;;
75935;SDS011;64614;32.062;34.834;2023-06-14T02:01:01;6.90;;;3.75;;
75935;SDS011;64614;32.062;34.834;2023-06-14T02:03:27;6.13;;;3.55;;
75935;SDS011;64614;32.062;34.834;2023-06-14T02:05:53;6.93;;;4.00;;
75935;SDS011;64614;32.062;34.834;2023-06-14T02:08:20;8.55;;;3.60;;
75935;SDS011;64614;32.062;34.834;2023-06-14T02:10:46;6.50;;;3.80;;
75935;SDS011;64614;32.062;34.834;2023-06-14T02:13:11;7.03;;;3.58;;
75935;SDS011;64614;32.062;34.834;2023-06-14T02:15:37;6.20;;;3.55;;
75935;SDS011;64614;32.062;34.834;2023-06-14T02:18:03;7.55;;;3.40;;
75935;SDS011;64614;32.062;34.834;2023-06-14T02:20:29;6.85;;;3.55;;
75935;SDS011;64614;32.062;34.834;2023-06-14T02:22:55;6.60;;;3.70;;
75935;SDS011;64614;32.062;34.834;2023-06-14T02:25:21;7.72;;;3.70;;
75935;SDS011;64614;32.062;34.834;2023-06-14T02:27:46;6.72;;;3.65;;
75935;SDS011;64614;32.062;34.834;2023-06-14T02:30:12;6.28;;;3.72;;
75935;SDS011;64614;32.062;34.834;2023-06-14T02:32:38;6.85;;;3.60;;
75935;SDS011;64614;32.062;34.834;2023-06-14T02:35:05;5.90;;;3.13;;
75935;SDS011;64614;32.062;34.834;2023-06-14T02:37:31;6.07;;;3.30;;
75935;SDS011;64614;32.062;34.834;2023-06-14T02:39:58;5.80;;;3.17;;
75935;SDS011;64614;32.062;34.834;2023-06-14T02:42:24;5.22;;;3.10;;
75935;SDS011;64614;32.062;34.834;2023-06-14T02:44:49;4.68;;;3.05;;
75935;SDS011;64614;32.062;34.834;2023-06-14T02:47:17;6.68;;;3.50;;
75935;SDS011;64614;32.062;34.834;2023-06-14T02:49:45;6.35;;;3.20;;
75935;SDS011;64614;32.062;34.834;2023-06-14T02:52:14;6.00;;;3.00;;
75935;SDS011;64614;32.062;34.834;2023-06-14T02:54:41;5.03;;;2.95;;
75935;SDS011;64614;32.062;34.834;2023-06-14T02:57:07;4.70;;;2.70;;
75935;SDS011;64614;32.062;34.834;2023-06-14T02:59:33;4.07;;;2.70;;
75935;SDS011;64614;32.062;34.834;2023-06-14T03:02:00;4.30;;;2.80;;
75935;SDS011;64614;32.062;34.834;2023-06-14T03:04:29;4.68;;;3.05;;
75935;SDS011;64614;32.062;34.834;2023-06-14T03:09:31;4.40;;;2.65;;
75935;SDS011;64614;32.062;34.834;2023-06-14T03:11:57;5.13;;;2.78;;
75935;SDS011;64614;32.062;34.834;2023-06-14T03:14:23;5.10;;;2.80;;
75935;SDS011;64614;32.062;34.834;2023-06-14T03:16:48;4.07;;;2.70;;
75935;SDS011;64614;32.062;34.834;2023-06-14T03:19:15;4.00;;;2.67;;
75935;SDS011;64614;32.062;34.834;2023-06-14T03:21:41;5.22;;;2.80;;
75935;SDS011;64614;32.062;34.834;2023-06-14T03:24:11;4.88;;;2.70;;
75935;SDS011;64614;32.062;34.834;2023-06-14T03:26:36;4.18;;;2.50;;
75935;SDS011;64614;32.062;34.834;2023-06-14T03:29:02;6.22;;;2.63;;
75935;SDS011;64614;32.062;34.834;2023-06-14T03:31:31;6.68;;;3.85;;
75935;SDS011;64614;32.062;34.834;2023-06-14T03:34:04;10.07;;;4.07;;
75935;SDS011;64614;32.062;34.834;2023-06-14T03:36:29;9.55;;;4.18;;
75935;SDS011;64614;32.062;34.834;2023-06-14T03:41:24;11.25;;;4.75;;
75935;SDS011;64614;32.062;34.834;2023-06-14T03:43:51;10.25;;;5.32;;
75935;SDS011;64614;32.062;34.834;2023-06-14T03:46:16;9.30;;;4.32;;
75935;SDS011;64614;32.062;34.834;2023-06-14T03:57:32;10.18;;;6.00;;
75935;SDS011;64614;32.062;34.834;2023-06-14T04:05:10;8.02;;;5.18;;
75935;SDS011;64614;32.062;34.834;2023-06-14T04:07:35;8.15;;;4.93;;
75935;SDS011;64614;32.062;34.834;2023-06-14T04:10:10;7.03;;;5.22;;
75935;SDS011;64614;32.062;34.834;2023-06-14T04:12:40;6.72;;;4.65;;
75935;SDS011;64614;32.062;34.834;2023-06-14T04:15:06;8.13;;;4.75;;
75935;SDS011;64614;32.062;34.834;2023-06-14T04:20:08;10.40;;;5.30;;
75935;SDS011;64614;32.062;34.834;2023-06-14T04:22:35;7.80;;;5.07;;
75935;SDS011;64614;32.062;34.834;2023-06-14T04:25:02;10.30;;;5.78;;
75935;SDS011;64614;32.062;34.834;2023-06-14T04:27:28;8.05;;;5.80;;
75935;SDS011;64614;32.062;34.834;2023-06-14T04:29:56;10.10;;;6.03;;
75935;SDS011;64614;32.062;34.834;2023-06-14T04:32:27;7.30;;;5.25;;
75935;SDS011;64614;32.062;34.834;2023-06-14T04:34:57;8.05;;;5.05;;
75935;SDS011;64614;32.062;34.834;2023-06-14T04:37:24;6.85;;;4.97;;
75935;SDS011;64614;32.062;34.834;2023-06-14T04:39:53;8.60;;;5.60;;
75935;SDS011;64614;32.062;34.834;2023-06-14T04:42:21;7.72;;;4.78;;
75935;SDS011;64614;32.062;34.834;2023-06-14T04:44:50;9.52;;;5.57;;
75935;SDS011;64614;32.062;34.834;2023-06-14T04:47:16;8.65;;;5.60;;
75935;SDS011;64614;32.062;34.834;2023-06-14T04:49:42;10.15;;;7.60;;
75935;SDS011;64614;32.062;34.834;2023-06-14T04:54:43;13.38;;;8.95;;
75935;SDS011;64614;32.062;34.834;2023-06-14T04:57:17;12.75;;;8.60;;
75935;SDS011;64614;32.062;34.834;2023-06-14T05:04:48;12.43;;;9.80;;
75935;SDS011;64614;32.062;34.834;2023-06-14T05:07:13;13.45;;;9.13;;
75935;SDS011;64614;32.062;34.834;2023-06-14T05:09:40;11.57;;;9.07;;
75935;SDS011;64614;32.062;34.834;2023-06-14T05:14:42;12.05;;;8.82;;
75935;SDS011;64614;32.062;34.834;2023-06-14T05:17:07;11.20;;;8.98;;
75935;SDS011;64614;32.062;34.834;2023-06-14T05:30:05;11.15;;;9.55;;
75935;SDS011;64614;32.062;34.834;2023-06-14T05:34:59;13.38;;;11.15;;
75935;SDS011;64614;32.062;34.834;2023-06-14T05:40:54;14.55;;;13.05;;
75935;SDS011;64614;32.062;34.834;2023-06-14T05:43:19;15.10;;;11.88;;
75935;SDS011;64614;32.062;34.834;2023-06-14T05:48:36;16.00;;;14.32;;
75935;SDS011;64614;32.062;34.834;2023-06-14T05:51:02;16.17;;;14.50;;
75935;SDS011;64614;32.062;34.834;2023-06-14T05:53:28;16.88;;;15.18;;
75935;SDS011;64614;32.062;34.834;2023-06-14T05:55:53;16.92;;;15.23;;
75935;SDS011;64614;32.062;34.834;2023-06-14T06:00:55;16.45;;;14.65;;
75935;SDS011;64614;32.062;34.834;2023-06-14T06:13:30;16.17;;;14.57;;
75935;SDS011;64614;32.062;34.834;2023-06-14T06:15:56;15.15;;;13.55;;
75935;SDS011;64614;32.062;34.834;2023-06-14T06:18:21;16.88;;;15.15;;
75935;SDS011;64614;32.062;34.834;2023-06-14T06:23:22;14.43;;;12.88;;
75935;SDS011;64614;32.062;34.834;2023-06-14T06:28:23;15.82;;;14.02;;
75935;SDS011;64614;32.062;34.834;2023-06-14T06:30:49;16.00;;;14.30;;
75935;SDS011;64614;32.062;34.834;2023-06-14T06:33:28;16.38;;;14.70;;
75935;SDS011;64614;32.062;34.834;2023-06-14T06:35:54;16.65;;;14.98;;
75935;SDS011;64614;32.062;34.834;2023-06-14T06:40:55;15.85;;;14.25;;
75935;SDS011;64614;32.062;34.834;2023-06-14T06:43:21;16.50;;;14.07;;
75935;SDS011;64614;32.062;34.834;2023-06-14T06:45:47;15.80;;;14.20;;
75935;SDS011;64614;32.062;34.834;2023-06-14T06:48:13;13.98;;;12.43;;
75935;SDS011;64614;32.062;34.834;2023-06-14T06:50:39;14.88;;;13.38;;
75935;SDS011;64614;32.062;34.834;2023-06-14T06:59:03;17.13;;;15.43;;
75935;SDS011;64614;32.062;34.834;2023-06-14T07:06:39;17.17;;;15.50;;
75935;SDS011;64614;32.062;34.834;2023-06-14T07:09:05;17.92;;;16.15;;
75935;SDS011;64614;32.062;34.834;2023-06-14T07:11:33;18.52;;;16.73;;
75935;SDS011;64614;32.062;34.834;2023-06-14T07:14:00;18.25;;;16.38;;
75935;SDS011;64614;32.062;34.834;2023-06-14T07:16:26;18.77;;;16.98;;
75935;SDS011;64614;32.062;34.834;2023-06-14T07:18:52;17.98;;;16.27;;
75935;SDS011;64614;32.062;34.834;2023-06-14T07:21:17;19.05;;;17.15;;
75935;SDS011;64614;32.062;34.834;2023-06-14T07:23:43;19.42;;;17.42;;
75935;SDS011;64614;32.062;34.834;2023-06-14T07:26:09;19.27;;;17.35;;
75935;SDS011;64614;32.062;34.834;2023-06-14T07:28:34;19.42;;;17.42;;
75935;SDS011;64614;32.062;34.834;2023-06-14T07:31:00;20.20;;;18.10;;
75935;SDS011;64614;32.062;34.834;2023-06-14T07:33:27;19.42;;;17.42;;
75935;SDS011;64614;32.062;34.834;2023-06-14T07:35:53;19.15;;;17.25;;
75935;SDS011;64614;32.062;34.834;2023-06-14T07:38:19;21.98;;;19.58;;
75935;SDS011;64614;32.062;34.834;2023-06-14T07:40:45;25.05;;;22.38;;
75935;SDS011;64614;32.062;34.834;2023-06-14T07:43:10;25.70;;;23.13;;
75935;SDS011;64614;32.062;34.834;2023-06-14T07:45:36;25.55;;;22.85;;
75935;SDS011;64614;32.062;34.834;2023-06-14T07:48:02;26.55;;;23.30;;
75935;SDS011;64614;32.062;34.834;2023-06-14T07:50:28;25.20;;;22.70;;
75935;SDS011;64614;32.062;34.834;2023-06-14T07:52:54;25.80;;;23.02;;
75935;SDS011;64614;32.062;34.834;2023-06-14T07:55:20;26.52;;;23.80;;
75935;SDS011;64614;32.062;34.834;2023-06-14T07:57:45;26.90;;;22.83;;
75935;SDS011;64614;32.062;34.834;2023-06-14T08:00:11;25.63;;;22.90;;
75935;SDS011;64614;32.062;34.834;2023-06-14T08:02:43;28.65;;;24.02;;
75935;SDS011;64614;32.062;34.834;2023-06-14T08:05:09;25.92;;;23.13;;
75935;SDS011;64614;32.062;34.834;2023-06-14T08:07:36;25.73;;;23.02;;
75935;SDS011;64614;32.062;34.834;2023-06-14T08:10:02;23.83;;;21.25;;
75935;SDS011;64614;32.062;34.834;2023-06-14T08:29:14;16.95;;;15.15;;
75935;SDS011;64614;32.062;34.834;2023-06-14T08:47:24;16.27;;;13.55;;
75935;SDS011;64614;32.062;34.834;2023-06-14T09:08:16;13.55;;;10.15;;
75935;SDS011;64614;32.062;34.834;2023-06-14T09:10:44;13.52;;;10.30;;
75935;SDS011;64614;32.062;34.834;2023-06-14T09:15:35;11.57;;;9.10;;
75935;SDS011;64614;32.062;34.834;2023-06-14T09:18:01;9.88;;;8.55;;
75935;SDS011;64614;32.062;34.834;2023-06-14T09:20:29;10.63;;;8.57;;
75935;SDS011;64614;32.062;34.834;2023-06-14T09:22:56;12.13;;;9.88;;
75935;SDS011;64614;32.062;34.834;2023-06-14T09:25:22;11.45;;;9.02;;
75935;SDS011;64614;32.062;34.834;2023-06-14T09:30:50;11.73;;;9.00;;
75935;SDS011;64614;32.062;34.834;2023-06-14T09:46:13;9.93;;;7.10;;
75935;SDS011;64614;32.062;34.834;2023-06-14T09:58:59;8.95;;;6.82;;
75935;SDS011;64614;32.062;34.834;2023-06-14T10:13:12;7.93;;;6.13;;
75935;SDS011;64614;32.062;34.834;2023-06-14T10:28:44;6.10;;;4.55;;
75935;SDS011;64614;32.062;34.834;2023-06-14T10:39:12;6.70;;;4.68;;
75935;SDS011;64614;32.062;34.834;2023-06-14T11:05:10;5.32;;;3.60;;
75935;SDS011;64614;32.062;34.834;2023-06-14T11:13:00;5.40;;;3.78;;
75935;SDS011;64614;32.062;34.834;2023-06-14T11:23:14;5.32;;;3.30;;
75935;SDS011;64614;32.062;34.834;2023-06-14T11:28:15;4.85;;;3.13;;
75935;SDS011;64614;32.062;34.834;2023-06-14T11:30:40;4.82;;;3.38;;
75935;SDS011;64614;32.062;34.834;2023-06-14T11:33:09;4.18;;;2.80;;
75935;SDS011;64614;32.062;34.834;2023-06-14T11:35:35;6.47;;;3.30;;
75935;SDS011;64614;32.062;34.834;2023-06-14T11:38:01;6.78;;;4.10;;
75935;SDS011;64614;32.062;34.834;2023-06-14T11:40:27;5.70;;;3.50;;
75935;SDS011;64614;32.062;34.834;2023-06-14T11:43:00;5.78;;;3.88;;
75935;SDS011;64614;32.062;34.834;2023-06-14T11:48:02;6.78;;;3.92;;
75935;SDS011;64614;32.062;34.834;2023-06-14T11:50:28;4.53;;;3.38;;
75935;SDS011;64614;32.062;34.834;2023-06-14T11:58:04;5.55;;;3.67;;
75935;SDS011;64614;32.062;34.834;2023-06-14T12:05:40;4.95;;;3.22;;
75935;SDS011;64614;32.062;34.834;2023-06-14T12:10:41;4.38;;;3.17;;
75935;SDS011;64614;32.062;34.834;2023-06-14T12:13:08;5.00;;;3.40;;
75935;SDS011;64614;32.062;34.834;2023-06-14T12:15:35;4.93;;;3.17;;
75935;SDS011;64614;32.062;34.834;2023-06-14T12:29:59;4.53;;;3.00;;
75935;SDS011;64614;32.062;34.834;2023-06-14T12:32:25;4.03;;;2.95;;
75935;SDS011;64614;32.062;34.834;2023-06-14T12:34:51;5.00;;;2.90;;
75935;SDS011;64614;32.062;34.834;2023-06-14T12:37:17;4.65;;;2.72;;
75935;SDS011;64614;32.062;34.834;2023-06-14T12:39:45;4.53;;;2.90;;
75935;SDS011;64614;32.062;34.834;2023-06-14T12:42:14;4.90;;;2.97;;
75935;SDS011;64614;32.062;34.834;2023-06-14T12:44:40;5.50;;;3.40;;
75935;SDS011;64614;32.062;34.834;2023-06-14T12:47:07;7.88;;;4.78;;
75935;SDS011;64614;32.062;34.834;2023-06-14T12:49:33;9.30;;;5.20;;
75935;SDS011;64614;32.062;34.834;2023-06-14T12:51:59;8.60;;;5.53;;
75935;SDS011;64614;32.062;34.834;2023-06-14T12:56:59;8.88;;;5.32;;
75935;SDS011;64614;32.062;34.834;2023-06-14T12:59:25;7.70;;;4.65;;
75935;SDS011;64614;32.062;34.834;2023-06-14T13:01:51;9.27;;;5.30;;
75935;SDS011;64614;32.062;34.834;2023-06-14T13:04:18;9.35;;;5.50;;
75935;SDS011;64614;32.062;34.834;2023-06-14T13:06:44;8.70;;;5.35;;
75935;SDS011;64614;32.062;34.834;2023-06-14T13:09:09;9.23;;;5.45;;
75935;SDS011;64614;32.062;34.834;2023-06-14T13:11:38;7.00;;;4.72;;
75935;SDS011;64614;32.062;34.834;2023-06-14T13:14:03;6.97;;;4.93;;
75935;SDS011;64614;32.062;34.834;2023-06-14T13:16:29;7.80;;;5.45;;
75935;SDS011;64614;32.062;34.834;2023-06-14T13:18:54;6.25;;;4.53;;
75935;SDS011;64614;32.062;34.834;2023-06-14T13:21:20;7.53;;;4.70;;
75935;SDS011;64614;32.062;34.834;2023-06-14T13:29:39;7.15;;;5.03;;
75935;SDS011;64614;32.062;34.834;2023-06-14T13:32:05;7.18;;;4.80;;
75935;SDS011;64614;32.062;34.834;2023-06-14T13:34:32;7.30;;;5.20;;
75935;SDS011;64614;32.062;34.834;2023-06-14T14:05:34;8.65;;;5.95;;
75935;SDS011;64614;32.062;34.834;2023-06-14T14:10:35;8.07;;;6.22;;
75935;SDS011;64614;32.062;34.834;2023-06-14T14:20:39;9.18;;;6.65;;
75935;SDS011;64614;32.062;34.834;2023-06-14T14:23:05;9.32;;;6.63;;
75935;SDS011;64614;32.062;34.834;2023-06-14T14:25:31;8.35;;;6.32;;
75935;SDS011;64614;32.062;34.834;2023-06-14T14:27:57;8.45;;;6.22;;
75935;SDS011;64614;32.062;34.834;2023-06-14T14:30:23;8.60;;;6.30;;
75935;SDS011;64614;32.062;34.834;2023-06-14T14:32:49;8.10;;;6.40;;
75935;SDS011;64614;32.062;34.834;2023-06-14T14:37:53;8.48;;;6.55;;
75935;SDS011;64614;32.062;34.834;2023-06-14T14:42:54;9.18;;;7.28;;
75935;SDS011;64614;32.062;34.834;2023-06-14T14:45:20;9.10;;;7.25;;
75935;SDS011;64614;32.062;34.834;2023-06-14T14:47:46;8.98;;;7.13;;
75935;SDS011;64614;32.062;34.834;2023-06-14T14:50:11;9.50;;;7.47;;
75935;SDS011;64614;32.062;34.834;2023-06-14T14:52:37;10.18;;;7.68;;
75935;SDS011;64614;32.062;34.834;2023-06-14T14:55:03;10.00;;;7.63;;
75935;SDS011;64614;32.062;34.834;2023-06-14T14:57:28;8.88;;;7.03;;
75935;SDS011;64614;32.062;34.834;2023-06-14T15:02:30;10.05;;;7.40;;
75935;SDS011;64614;32.062;34.834;2023-06-14T15:17:46;9.98;;;7.40;;
75935;SDS011;64614;32.062;34.834;2023-06-14T15:22:40;8.93;;;7.35;;
75935;SDS011;64614;32.062;34.834;2023-06-14T15:25:06;9.65;;;7.63;;
75935;SDS011;64614;32.062;34.834;2023-06-14T15:27:32;9.95;;;7.70;;
75935;SDS011;64614;32.062;34.834;2023-06-14T15:29:58;9.90;;;7.72;;
75935;SDS011;64614;32.062;34.834;2023-06-14T15:40:28;10.70;;;8.55;;
75935;SDS011;64614;32.062;34.834;2023-06-14T15:42:54;10.43;;;7.68;;
75935;SDS011;64614;32.062;34.834;2023-06-14T15:45:19;11.20;;;8.50;;
75935;SDS011;64614;32.062;34.834;2023-06-14T15:47:45;9.63;;;8.02;;
75935;SDS011;64614;32.062;34.834;2023-06-14T15:50:11;11.70;;;8.20;;
75935;SDS011;64614;32.062;34.834;2023-06-14T15:52:37;10.07;;;7.80;;
75935;SDS011;64614;32.062;34.834;2023-06-14T15:57:30;8.15;;;7.13;;
75935;SDS011;64614;32.062;34.834;2023-06-14T15:59:55;9.57;;;7.20;;
75935;SDS011;64614;32.062;34.834;2023-06-14T16:02:21;9.45;;;7.72;;
75935;SDS011;64614;32.062;34.834;2023-06-14T16:04:47;8.23;;;7.00;;
75935;SDS011;64614;32.062;34.834;2023-06-14T16:07:13;8.70;;;7.07;;
75935;SDS011;64614;32.062;34.834;2023-06-14T16:09:39;8.40;;;6.68;;
75935;SDS011;64614;32.062;34.834;2023-06-14T16:12:05;10.57;;;7.68;;
75935;SDS011;64614;32.062;34.834;2023-06-14T16:14:31;10.90;;;7.60;;
75935;SDS011;64614;32.062;34.834;2023-06-14T16:16:57;10.68;;;7.80;;
75935;SDS011;64614;32.062;34.834;2023-06-14T16:19:23;9.52;;;7.00;;
75935;SDS011;64614;32.062;34.834;2023-06-14T16:21:49;10.40;;;8.00;;
75935;SDS011;64614;32.062;34.834;2023-06-14T16:24:15;9.63;;;7.78;;
75935;SDS011;64614;32.062;34.834;2023-06-14T16:26:41;10.60;;;8.02;;
75935;SDS011;64614;32.062;34.834;2023-06-14T16:29:07;10.10;;;7.88;;
75935;SDS011;64614;32.062;34.834;2023-06-14T16:31:33;10.93;;;8.07;;
75935;SDS011;64614;32.062;34.834;2023-06-14T16:33:59;10.77;;;7.85;;
75935;SDS011;64614;32.062;34.834;2023-06-14T16:36:26;10.98;;;8.27;;
75935;SDS011;64614;32.062;34.834;2023-06-14T16:38:59;10.25;;;8.23;;
75935;SDS011;64614;32.062;34.834;2023-06-14T16:41:38;9.45;;;7.35;;
75935;SDS011;64614;32.062;34.834;2023-06-14T16:44:04;9.88;;;7.78;;
75935;SDS011;64614;32.062;34.834;2023-06-14T16:46:30;8.57;;;7.30;;
75935;SDS011;64614;32.062;34.834;2023-06-14T16:48:57;8.85;;;7.38;;
75935;SDS011;64614;32.062;34.834;2023-06-14T16:51:23;8.77;;;7.45;;
75935;SDS011;64614;32.062;34.834;2023-06-14T16:53:49;9.38;;;7.18;;
75935;SDS011;64614;32.062;34.834;2023-06-14T16:56:16;9.10;;;7.35;;
75935;SDS011;64614;32.062;34.834;2023-06-14T16:58:42;10.05;;;7.35;;
75935;SDS011;64614;32.062;34.834;2023-06-14T17:01:08;7.90;;;6.85;;
75935;SDS011;64614;32.062;34.834;2023-06-14T17:03:34;9.45;;;7.60;;
75935;SDS011;64614;32.062;34.834;2023-06-14T17:06:00;8.32;;;7.00;;
75935;SDS011;64614;32.062;34.834;2023-06-14T17:08:26;8.85;;;6.90;;
75935;SDS011;64614;32.062;34.834;2023-06-14T17:10:52;9.32;;;6.72;;
75935;SDS011;64614;32.062;34.834;2023-06-14T17:13:18;7.70;;;6.50;;
75935;SDS011;64614;32.062;34.834;2023-06-14T17:15:45;8.65;;;6.40;;
75935;SDS011;64614;32.062;34.834;2023-06-14T17:18:11;8.10;;;5.68;;
75935;SDS011;64614;32.062;34.834;2023-06-14T17:20:37;7.82;;;5.95;;
75935;SDS011;64614;32.062;34.834;2023-06-14T17:23:03;8.48;;;6.00;;
75935;SDS011;64614;32.062;34.834;2023-06-14T17:25:28;7.43;;;5.90;;
75935;SDS011;64614;32.062;34.834;2023-06-14T17:27:55;9.43;;;6.15;;
75935;SDS011;64614;32.062;34.834;2023-06-14T17:30:20;7.80;;;5.95;;
75935;SDS011;64614;32.062;34.834;2023-06-14T17:32:46;8.05;;;5.50;;
75935;SDS011;64614;32.062;34.834;2023-06-14T17:35:12;8.05;;;5.90;;
75935;SDS011;64614;32.062;34.834;2023-06-14T17:37:39;7.60;;;6.00;;
75935;SDS011;64614;32.062;34.834;2023-06-14T17:40:06;8.52;;;5.97;;
75935;SDS011;64614;32.062;34.834;2023-06-14T17:42:32;7.55;;;5.40;;
75935;SDS011;64614;32.062;34.834;2023-06-14T17:44:57;10.10;;;6.35;;
75935;SDS011;64614;32.062;34.834;2023-06-14T17:47:24;8.65;;;6.30;;
75935;SDS011;64614;32.062;34.834;2023-06-14T17:52:21;8.02;;;5.43;;
75935;SDS011;64614;32.062;34.834;2023-06-14T17:54:47;6.90;;;5.63;;
75935;SDS011;64614;32.062;34.834;2023-06-14T17:57:13;7.75;;;5.47;;
75935;SDS011;64614;32.062;34.834;2023-06-14T17:59:40;7.97;;;5.47;;
75935;SDS011;64614;32.062;34.834;2023-06-14T18:02:06;8.27;;;5.25;;
75935;SDS011;64614;32.062;34.834;2023-06-14T18:04:32;7.75;;;5.53;;
75935;SDS011;64614;32.062;34.834;2023-06-14T18:06:58;7.43;;;4.88;;
75935;SDS011;64614;32.062;34.834;2023-06-14T18:09:27;7.10;;;5.50;;
75935;SDS011;64614;32.062;34.834;2023-06-14T18:11:53;7.93;;;4.80;;
75935;SDS011;64614;32.062;34.834;2023-06-14T18:14:20;8.63;;;5.30;;
75935;SDS011;64614;32.062;34.834;2023-06-14T18:16:46;7.18;;;5.28;;
75935;SDS011;64614;32.062;34.834;2023-06-14T18:19:12;7.00;;;5.10;;
75935;SDS011;64614;32.062;34.834;2023-06-14T18:21:49;6.78;;;5.20;;
75935;SDS011;64614;32.062;34.834;2023-06-14T18:24:15;7.00;;;5.45;;
75935;SDS011;64614;32.062;34.834;2023-06-14T18:26:42;8.00;;;5.18;;
75935;SDS011;64614;32.062;34.834;2023-06-14T18:29:07;7.93;;;5.47;;
75935;SDS011;64614;32.062;34.834;2023-06-14T18:34:08;15.55;;;6.75;;
75935;SDS011;64614;32.062;34.834;2023-06-14T18:39:12;13.13;;;6.03;;
75935;SDS011;64614;32.062;34.834;2023-06-14T18:41:37;14.27;;;6.30;;
75935;SDS011;64614;32.062;34.834;2023-06-14T18:44:04;11.98;;;6.57;;
75935;SDS011;64614;32.062;34.834;2023-06-14T18:46:30;13.00;;;6.22;;
75935;SDS011;64614;32.062;34.834;2023-06-14T18:48:56;10.00;;;5.95;;
75935;SDS011;64614;32.062;34.834;2023-06-14T18:51:22;11.15;;;6.15;;
75935;SDS011;64614;32.062;34.834;2023-06-14T18:53:47;10.57;;;6.05;;
75935;SDS011;64614;32.062;34.834;2023-06-14T18:56:13;10.15;;;5.82;;
75935;SDS011;64614;32.062;34.834;2023-06-14T18:58:39;10.13;;;5.72;;
75935;SDS011;64614;32.062;34.834;2023-06-14T19:01:04;10.60;;;6.00;;
75935;SDS011;64614;32.062;34.834;2023-06-14T19:03:31;9.10;;;5.90;;
75935;SDS011;64614;32.062;34.834;2023-06-14T19:05:56;8.82;;;5.88;;
75935;SDS011;64614;32.062;34.834;2023-06-14T19:08:23;9.02;;;5.05;;
75935;SDS011;64614;32.062;34.834;2023-06-14T19:10:49;9.43;;;5.93;;
75935;SDS011;64614;32.062;34.834;2023-06-14T19:13:17;7.72;;;4.97;;
75935;SDS011;64614;32.062;34.834;2023-06-14T19:15:42;8.48;;;5.40;;
75935;SDS011;64614;32.062;34.834;2023-06-14T19:18:08;9.63;;;5.10;;
75935;SDS011;64614;32.062;34.834;2023-06-14T19:20:35;8.18;;;4.90;;
75935;SDS011;64614;32.062;34.834;2023-06-14T19:23:01;10.00;;;5.20;;
75935;SDS011;64614;32.062;34.834;2023-06-14T19:25:28;7.30;;;4.90;;
75935;SDS011;64614;32.062;34.834;2023-06-14T19:27:54;7.47;;;5.32;;
75935;SDS011;64614;32.062;34.834;2023-06-14T19:32:55;7.80;;;4.80;;
75935;SDS011;64614;32.062;34.834;2023-06-14T19:35:20;9.60;;;4.88;;
75935;SDS011;64614;32.062;34.834;2023-06-14T19:37:47;7.20;;;4.68;;
75935;SDS011;64614;32.062;34.834;2023-06-14T19:40:12;9.15;;;5.38;;
75935;SDS011;64614;32.062;34.834;2023-06-14T19:42:39;7.90;;;5.10;;
75935;SDS011;64614;32.062;34.834;2023-06-14T19:45:05;9.73;;;5.20;;
75935;SDS011;64614;32.062;34.834;2023-06-14T19:47:33;7.18;;;5.00;;
75935;SDS011;64614;32.062;34.834;2023-06-14T19:49:59;7.72;;;4.85;;
75935;SDS011;64614;32.062;34.834;2023-06-14T19:52:24;8.32;;;4.80;;
75935;SDS011;64614;32.062;34.834;2023-06-14T19:54:50;7.70;;;5.00;;
75935;SDS011;64614;32.062;34.834;2023-06-14T19:57:16;8.80;;;4.65;;
75935;SDS011;64614;32.062;34.834;2023-06-14T19:59:42;6.40;;;4.50;;
75935;SDS011;64614;32.062;34.834;2023-06-14T20:02:08;8.52;;;4.80;;
75935;SDS011;64614;32.062;34.834;2023-06-14T20:04:34;8.98;;;4.50;;
75935;SDS011;64614;32.062;34.834;2023-06-14T20:07:02;8.45;;;4.80;;
75935;SDS011;64614;32.062;34.834;2023-06-14T20:09:31;8.23;;;4.78;;
75935;SDS011;64614;32.062;34.834;2023-06-14T20:12:00;7.75;;;4.35;;
75935;SDS011;64614;32.062;34.834;2023-06-14T20:14:26;7.80;;;4.95;;
75935;SDS011;64614;32.062;34.834;2023-06-14T20:16:52;7.07;;;4.60;;
75935;SDS011;64614;32.062;34.834;2023-06-14T20:19:22;8.48;;;4.65;;
75935;SDS011;64614;32.062;34.834;2023-06-14T20:21:48;7.40;;;4.20;;